Time;durP1;ratioP1;P1;durP2;ratioP2;P2;SDS_P1;SDS_P2;PMS_P1;PMS_P2;Temp;Humidity;BMP_temperature;BMP_pressure;BME280_temperature;BME280_humidity;BME280_pressure;Samples;Min_cycle;Max_cycle;Signal;HPM_P1;HPM_P2
2022/10/07 00:02:28;;;;;;;8.13;7.05;;;;;;;-141.48;100.00;69781.59;5230591;28;20066;-68
2022/10/07 00:04:59;;;;;;;11.55;7.32;;;;;;;-141.48;100.00;69781.59;5212745;28;20112;-67
2022/10/07 00:07:45;;;;;;;8.95;8.15;;;;;;;-141.48;100.00;69781.59;5213568;28;20597;-66
2022/10/07 00:10:16;;;;;;;9.68;6.93;;;;;;;-141.48;100.00;69781.59;5213302;28;20033;-67
2022/10/07 00:12:47;;;;;;;14.82;9.38;;;;;;;-141.48;100.00;69781.59;5231394;28;20055;-65
2022/10/07 00:15:18;;;;;;;7.30;6.50;;;;;;;-141.48;100.00;69781.59;5212746;28;20021;-66
2022/10/07 00:17:49;;;;;;;7.60;6.75;;;;;;;-141.48;100.00;69781.59;5213059;28;20052;-67
2022/10/07 00:20:19;;;;;;;15.00;6.55;;;;;;;-141.48;100.00;69781.59;5212518;28;20033;-65
2022/10/07 00:22:52;;;;;;;11.43;6.82;;;;;;;-141.48;100.00;69781.59;5231012;28;20036;-69
2022/10/07 00:25:23;;;;;;;8.55;7.95;;;;;;;-141.48;100.00;69781.59;5214336;28;20032;-67
2022/10/07 00:27:53;;;;;;;8.15;7.38;;;;;;;-141.48;100.00;69781.59;5232935;28;20027;-69
2022/10/07 00:30:24;;;;;;;8.00;7.10;;;;;;;-141.48;100.00;69781.59;5232799;28;20116;-67
2022/10/07 00:32:55;;;;;;;6.38;5.82;;;;;;;-141.48;100.00;69781.59;5213274;28;20035;-67
2022/10/07 00:35:26;;;;;;;11.57;8.02;;;;;;;-141.48;100.00;69781.59;5211128;28;20025;-67
2022/10/07 00:37:56;;;;;;;8.00;7.25;;;;;;;-141.48;100.00;69781.59;5211102;28;20021;-66
2022/10/07 00:40:27;;;;;;;9.00;8.10;;;;;;;-141.48;100.00;69781.59;5210978;28;20103;-66
2022/10/07 00:42:58;;;;;;;6.68;6.20;;;;;;;-141.48;100.00;69781.59;5210585;28;20025;-68
2022/10/07 00:45:29;;;;;;;13.80;7.75;;;;;;;-141.48;100.00;69781.59;5229125;28;20074;-68
2022/10/07 00:47:59;;;;;;;8.13;6.90;;;;;;;-141.48;100.00;69781.59;5211525;28;20025;-68
2022/10/07 00:50:32;;;;;;;7.85;7.13;;;;;;;-141.48;100.00;69781.59;5211578;28;20044;-69
2022/10/07 00:53:03;;;;;;;9.52;7.55;;;;;;;-141.48;100.00;69781.59;5237590;22;20012;-68
2022/10/07 00:55:34;;;;;;;10.77;8.13;;;;;;;-141.48;100.00;69781.59;5203750;28;20029;-70
2022/10/07 00:58:13;;;;;;;7.05;6.45;;;;;;;-141.48;100.00;69781.59;5212084;28;20017;-68
2022/10/07 01:00:47;;;;;;;9.50;7.13;;;;;;;-141.48;100.00;69781.59;5228118;28;20033;-67
2022/10/07 01:03:18;;;;;;;11.35;7.88;;;;;;;-141.48;100.00;69781.59;5211789;28;20045;-67
2022/10/07 01:05:49;;;;;;;10.98;8.35;;;;;;;-141.48;100.00;69781.59;5211412;28;20483;-68
2022/10/07 01:08:22;;;;;;;11.00;8.57;;;;;;;-141.48;100.00;69781.59;5211680;28;20017;-67
2022/10/07 01:11:15;;;;;;;8.27;7.63;;;;;;;-141.48;100.00;69781.59;5211307;28;20025;-67
2022/10/07 01:13:46;;;;;;;11.68;7.63;;;;;;;-141.48;100.00;69781.59;5211568;28;20548;-68
2022/10/07 01:16:48;;;;;;;7.97;7.25;;;;;;;-141.48;100.00;69781.59;5211141;28;20116;-67
2022/10/07 01:19:39;;;;;;;8.82;8.07;;;;;;;-141.48;100.00;69781.59;5230153;28;20100;-66
2022/10/07 01:22:40;;;;;;;8.20;7.35;;;;;;;-141.48;100.00;69781.59;5211710;28;20614;-65
2022/10/07 01:25:38;;;;;;;7.10;6.72;;;;;;;-141.48;100.00;69781.59;5229845;28;20048;-67
2022/10/07 01:28:24;;;;;;;10.50;8.27;;;;;;;-141.48;100.00;69781.59;5229881;28;20021;-68
2022/10/07 01:31:00;;;;;;;9.85;7.72;;;;;;;-141.48;100.00;69781.59;5229821;28;20090;-70
2022/10/07 01:33:33;;;;;;;11.82;7.28;;;;;;;-141.48;100.00;69781.59;5229402;28;20044;-69
2022/10/07 01:36:11;;;;;;;7.13;6.53;;;;;;;-141.48;100.00;69781.59;5211556;28;20033;-66
2022/10/07 01:38:50;;;;;;;12.60;8.15;;;;;;;-141.48;100.00;69781.59;5210955;28;20021;-65
2022/10/07 01:41:23;;;;;;;18.40;10.25;;;;;;;-141.48;100.00;69781.59;5211733;28;20033;-66
2022/10/07 01:43:56;;;;;;;22.90;10.52;;;;;;;-141.48;100.00;69781.59;5211417;28;20039;-67
2022/10/07 01:46:29;;;;;;;10.68;7.75;;;;;;;-141.48;100.00;69781.59;5211076;28;20120;-68
2022/10/07 01:48:59;;;;;;;7.32;6.68;;;;;;;-141.48;100.00;69781.59;5211408;28;20031;-68
2022/10/07 01:51:36;;;;;;;10.05;8.95;;;;;;;-141.48;100.00;69781.59;5211912;28;20037;-68
2022/10/07 01:54:25;;;;;;;22.38;8.90;;;;;;;-141.48;100.00;69781.59;5211128;28;20448;-68
2022/10/07 01:57:23;;;;;;;10.40;7.83;;;;;;;-141.48;100.00;69781.59;5211038;28;20436;-71
2022/10/07 02:00:04;;;;;;;11.68;7.70;;;;;;;-141.48;100.00;69781.59;5211196;28;20067;-67
2022/10/07 02:03:03;;;;;;;10.25;8.73;;;;;;;-141.48;100.00;69781.59;5211485;28;20075;-69
2022/10/07 02:05:59;;;;;;;10.07;8.52;;;;;;;-141.48;100.00;69781.59;5210309;28;20033;-68
2022/10/07 02:12:08;;;;;;;9.50;8.80;;;;;;;-141.48;100.00;69781.59;5228762;28;20032;-69
2022/10/07 02:14:47;;;;;;;8.27;7.57;;;;;;;-141.48;100.00;69781.59;5228293;28;20205;-67
2022/10/07 02:18:03;;;;;;;9.10;8.32;;;;;;;-141.48;100.00;69781.59;5211129;28;20115;-67
2022/10/07 02:20:38;;;;;;;9.65;8.48;;;;;;;-141.48;100.00;69781.59;5208997;28;20107;-70
2022/10/07 02:23:12;;;;;;;15.73;9.38;;;;;;;-141.48;100.00;69781.59;5210661;28;20375;-66
2022/10/07 02:25:49;;;;;;;14.77;7.43;;;;;;;-141.48;100.00;69781.59;5229351;28;20037;-67
2022/10/07 02:28:23;;;;;;;10.25;9.50;;;;;;;-141.48;100.00;69781.59;5211029;28;20024;-65
2022/10/07 02:30:58;;;;;;;9.80;8.25;;;;;;;-141.48;100.00;69781.59;5211187;28;20033;-71
2022/10/07 02:33:31;;;;;;;10.77;9.48;;;;;;;-141.48;100.00;69781.59;5210930;28;20021;-66
2022/10/07 02:36:09;;;;;;;8.65;7.82;;;;;;;-141.48;100.00;69781.59;5210752;28;20028;-68
2022/10/07 02:38:53;;;;;;;12.68;8.75;;;;;;;-141.48;100.00;69781.59;5211285;28;20024;-69
2022/10/07 02:41:34;;;;;;;17.73;10.65;;;;;;;-141.48;100.00;69781.59;5228843;28;20047;-67
2022/10/07 02:44:07;;;;;;;13.50;9.63;;;;;;;-141.48;100.00;69781.59;5211237;28;20075;-69
2022/10/07 02:46:46;;;;;;;13.05;9.05;;;;;;;-141.48;100.00;69781.59;5211933;28;20143;-67
2022/10/07 02:49:22;;;;;;;10.38;9.30;;;;;;;-141.48;100.00;69781.59;5211767;28;20028;-68
2022/10/07 02:52:04;;;;;;;8.32;6.50;;;;;;;-141.48;100.00;69781.59;5211634;28;20027;-67
2022/10/07 02:54:40;;;;;;;9.75;8.75;;;;;;;-141.48;100.00;69781.59;5211208;28;20033;-68
2022/10/07 02:57:15;;;;;;;9.02;7.90;;;;;;;-141.48;100.00;69781.59;5211953;28;20032;-68
2022/10/07 02:59:48;;;;;;;8.02;7.45;;;;;;;-141.48;100.00;69781.59;5211386;28;20103;-68
2022/10/07 03:02:31;;;;;;;10.52;9.48;;;;;;;-141.48;100.00;69781.59;5212356;28;20051;-69
2022/10/07 03:05:01;;;;;;;12.80;8.75;;;;;;;-141.48;100.00;69781.59;5211850;28;20403;-65
2022/10/07 03:07:32;;;;;;;7.57;6.80;;;;;;;-141.48;100.00;69781.59;5212400;28;20029;-69
2022/10/07 03:10:06;;;;;;;9.02;7.40;;;;;;;-141.48;100.00;69781.59;5213087;28;20055;-68
2022/10/07 03:12:37;;;;;;;18.75;8.10;;;;;;;-141.48;100.00;69781.59;5211967;28;20031;-68
2022/10/07 03:15:09;;;;;;;7.05;6.47;;;;;;;-141.48;100.00;69781.59;5211779;28;20193;-66
2022/10/07 03:17:40;;;;;;;16.40;8.63;;;;;;;-141.48;100.00;69781.59;5216243;28;20017;-70
2022/10/07 03:20:13;;;;;;;10.00;7.97;;;;;;;-141.48;100.00;69781.59;5216587;28;20127;-68
2022/10/07 03:22:44;;;;;;;16.17;9.10;;;;;;;-141.48;100.00;69781.59;5216711;28;20579;-65
2022/10/07 03:25:15;;;;;;;14.48;7.97;;;;;;;-141.48;100.00;69781.59;5228443;22;20061;-72
2022/10/07 03:27:47;;;;;;;17.92;8.55;;;;;;;-141.48;100.00;69781.59;5229154;28;20544;-68
2022/10/07 03:30:19;;;;;;;15.38;9.25;;;;;;;-141.48;100.00;69781.59;5229033;28;20025;-70
2022/10/07 03:32:50;;;;;;;9.18;8.27;;;;;;;-141.48;100.00;69781.59;5229013;28;20029;-68
2022/10/07 03:35:21;;;;;;;16.17;9.75;;;;;;;-141.48;100.00;69781.59;5228669;28;20028;-69
2022/10/07 03:37:51;;;;;;;10.90;8.50;;;;;;;-141.48;100.00;69781.59;5228506;28;20040;-72
2022/10/07 03:40:22;;;;;;;11.95;8.32;;;;;;;-141.48;100.00;69781.59;5228882;28;20025;-70
2022/10/07 03:42:52;;;;;;;16.77;9.23;;;;;;;-141.48;100.00;69781.59;5229877;28;20499;-69
2022/10/07 03:45:23;;;;;;;16.20;8.82;;;;;;;-141.48;100.00;69781.59;5228855;28;20035;-70
2022/10/07 03:47:53;;;;;;;9.43;8.25;;;;;;;-141.48;100.00;69781.59;5228806;28;20053;-70
2022/10/07 03:50:25;;;;;;;8.10;7.47;;;;;;;-141.48;100.00;69781.59;5228635;28;20036;-67
2022/10/07 03:52:55;;;;;;;21.92;10.05;;;;;;;-141.48;100.00;69781.59;5229907;28;20112;-69
2022/10/07 03:55:26;;;;;;;13.93;8.68;;;;;;;-141.48;100.00;69781.59;5245374;28;20119;-71
2022/10/07 03:57:56;;;;;;;13.43;8.23;;;;;;;-141.48;100.00;69781.59;5228581;28;20104;-69
2022/10/07 04:00:27;;;;;;;13.63;8.43;;;;;;;-141.48;100.00;69781.59;5228762;28;20092;-70
2022/10/07 04:02:57;;;;;;;13.57;7.93;;;;;;;-141.48;100.00;69781.59;5228754;28;20017;-69
2022/10/07 04:05:28;;;;;;;8.93;6.70;;;;;;;-141.48;100.00;69781.59;5228089;28;20445;-69
2022/10/07 04:07:58;;;;;;;14.50;7.90;;;;;;;-141.48;100.00;69781.59;5228533;28;20025;-69
2022/10/07 04:10:29;;;;;;;7.38;5.80;;;;;;;-141.48;100.00;69781.59;5229900;28;20024;-71
2022/10/07 04:13:00;;;;;;;16.80;9.25;;;;;;;-141.48;100.00;69781.59;5228452;28;20025;-69
2022/10/07 04:15:30;;;;;;;10.00;6.60;;;;;;;-141.48;100.00;69781.59;5227777;28;20028;-69
2022/10/07 04:18:01;;;;;;;10.35;7.18;;;;;;;-141.48;100.00;69781.59;5228281;28;20382;-70
2022/10/07 04:20:31;;;;;;;9.05;8.23;;;;;;;-141.48;100.00;69781.59;5228871;28;20039;-68
2022/10/07 04:23:02;;;;;;;11.30;8.65;;;;;;;-141.48;100.00;69781.59;5228031;28;20086;-72
2022/10/07 04:25:32;;;;;;;14.95;8.18;;;;;;;-141.48;100.00;69781.59;5227746;28;20095;-69
2022/10/07 04:28:05;;;;;;;11.80;7.68;;;;;;;-141.48;100.00;69781.59;5227224;28;20459;-70
2022/10/07 04:30:42;;;;;;;10.95;7.90;;;;;;;-141.48;100.00;69781.59;5227819;28;20239;-68
2022/10/07 04:33:12;;;;;;;9.57;6.80;;;;;;;-141.48;100.00;69781.59;5227903;28;20477;-70
2022/10/07 04:35:43;;;;;;;9.13;8.50;;;;;;;-141.48;100.00;69781.59;5227588;28;20020;-70
2022/10/07 04:38:20;;;;;;;10.95;8.27;;;;;;;-141.48;100.00;69781.59;5227835;28;20131;-68
2022/10/07 04:40:50;;;;;;;14.95;9.20;;;;;;;-141.48;100.00;69781.59;5228125;28;20094;-68
2022/10/07 04:43:26;;;;;;;9.63;8.00;;;;;;;-141.48;100.00;69781.59;5227505;28;20028;-69
2022/10/07 04:46:07;;;;;;;16.90;8.07;;;;;;;-141.48;100.00;69781.59;5227782;28;20032;-71
2022/10/07 04:48:37;;;;;;;13.23;8.68;;;;;;;-141.48;100.00;69781.59;5228065;28;20021;-71
2022/10/07 04:51:08;;;;;;;13.05;7.43;;;;;;;-141.48;100.00;69781.59;5228577;28;20032;-68
2022/10/07 04:53:42;;;;;;;12.35;6.75;;;;;;;-141.48;100.00;69781.59;5227407;28;20029;-70
2022/10/07 04:56:12;;;;;;;16.67;6.63;;;;;;;-141.48;100.00;69781.59;5227428;28;20397;-67
2022/10/07 04:58:43;;;;;;;17.67;8.07;;;;;;;-141.48;100.00;69781.59;5227379;28;20036;-69
2022/10/07 05:01:13;;;;;;;15.38;7.18;;;;;;;-141.48;100.00;69781.59;5227522;28;20457;-68
2022/10/07 05:03:44;;;;;;;9.18;8.27;;;;;;;-141.48;100.00;69781.59;5226854;28;20036;-73
2022/10/07 05:06:15;;;;;;;26.70;9.27;;;;;;;-141.48;100.00;69781.59;5227505;28;20497;-70
2022/10/07 05:08:51;;;;;;;14.52;8.95;;;;;;;-141.48;100.00;69781.59;5225439;28;20033;-71
2022/10/07 05:11:21;;;;;;;12.35;7.72;;;;;;;-141.48;100.00;69781.59;5225000;28;20033;-68
2022/10/07 05:13:52;;;;;;;7.82;6.30;;;;;;;-141.48;100.00;69781.59;5225790;28;20078;-70
2022/10/07 05:16:22;;;;;;;14.57;6.82;;;;;;;-141.48;100.00;69781.59;5226512;28;20511;-69
2022/10/07 05:18:52;;;;;;;7.68;6.05;;;;;;;-141.48;100.00;69781.59;5226728;28;20508;-71
2022/10/07 05:21:23;;;;;;;11.68;9.75;;;;;;;-141.48;100.00;69781.59;5225543;28;20028;-69
2022/10/07 05:23:53;;;;;;;7.65;6.18;;;;;;;-141.48;100.00;69781.59;5226043;28;20024;-70
2022/10/07 05:26:24;;;;;;;9.27;7.45;;;;;;;-141.48;100.00;69781.59;5222712;28;20037;-69
2022/10/07 05:28:54;;;;;;;11.93;8.25;;;;;;;-141.48;100.00;69781.59;5206035;28;20021;-68
2022/10/07 05:31:26;;;;;;;20.88;8.52;;;;;;;-141.48;100.00;69781.59;5207145;28;20029;-68
2022/10/07 05:33:58;;;;;;;9.60;7.65;;;;;;;-141.48;100.00;69781.59;5205305;28;20029;-68
2022/10/07 05:36:28;;;;;;;12.60;8.05;;;;;;;-141.48;100.00;69781.59;5205933;28;20111;-68
2022/10/07 05:38:59;;;;;;;10.40;7.15;;;;;;;-141.48;100.00;69781.59;5205615;28;20121;-70
2022/10/07 05:41:29;;;;;;;12.88;8.50;;;;;;;-141.48;100.00;69781.59;5206138;28;20025;-69
2022/10/07 05:44:00;;;;;;;15.80;7.68;;;;;;;-141.48;100.00;69781.59;5205761;28;20033;-67
2022/10/07 05:46:30;;;;;;;13.77;8.35;;;;;;;-141.48;100.00;69781.59;5206124;28;20021;-70
2022/10/07 05:49:02;;;;;;;16.98;8.73;;;;;;;-141.48;100.00;69781.59;5205597;28;20030;-70
2022/10/07 05:51:32;;;;;;;11.82;7.43;;;;;;;-141.48;100.00;69781.59;5205417;28;20057;-69
2022/10/07 05:54:03;;;;;;;13.60;7.93;;;;;;;-141.48;100.00;69781.59;5205352;28;20063;-71
2022/10/07 05:56:35;;;;;;;10.75;7.32;;;;;;;-141.48;100.00;69781.59;5205412;28;20052;-70
2022/10/07 05:59:06;;;;;;;11.68;7.75;;;;;;;-141.48;100.00;69781.59;5205430;28;20064;-67
2022/10/07 06:01:36;;;;;;;10.18;7.63;;;;;;;-141.48;100.00;69781.59;5205707;28;20021;-68
2022/10/07 06:04:07;;;;;;;11.25;8.07;;;;;;;-141.48;100.00;69781.59;5205384;28;20113;-71
2022/10/07 06:06:38;;;;;;;12.15;8.50;;;;;;;-141.48;100.00;69781.59;5206228;28;20127;-69
2022/10/07 06:14:48;;;;;;;16.33;9.45;;;;;;;-141.48;100.00;69781.59;5206789;28;20040;-73
2022/10/07 06:17:21;;;;;;;10.10;7.97;;;;;;;-141.48;100.00;69781.59;5204907;28;20023;-70
2022/10/07 06:19:52;;;;;;;13.82;7.38;;;;;;;-141.48;100.00;69781.59;5206445;28;20481;-73
2022/10/07 06:22:22;;;;;;;12.30;8.50;;;;;;;-141.48;100.00;69781.59;5206942;28;20104;-70
2022/10/07 06:24:57;;;;;;;16.60;9.05;;;;;;;-141.48;100.00;69781.59;5205277;28;20537;-69
2022/10/07 06:27:29;;;;;;;16.77;7.57;;;;;;;-141.48;100.00;69781.59;5205595;28;20099;-67
2022/10/07 06:30:00;;;;;;;11.88;7.28;;;;;;;-141.48;100.00;69781.59;5204830;28;20022;-70
2022/10/07 06:32:31;;;;;;;21.52;16.05;;;;;;;-141.48;100.00;69781.59;5205851;28;20048;-67
2022/10/07 06:35:02;;;;;;;18.65;11.23;;;;;;;-141.48;100.00;69781.59;5204591;28;20375;-69
2022/10/07 06:37:32;;;;;;;8.15;7.35;;;;;;;-141.48;100.00;69781.59;5203415;28;20109;-68
2022/10/07 06:40:03;;;;;;;10.38;8.40;;;;;;;-141.48;100.00;69781.59;5204637;28;20056;-69
2022/10/07 06:42:33;;;;;;;10.60;7.43;;;;;;;-141.48;100.00;69781.59;5204830;28;20037;-68
2022/10/07 06:45:04;;;;;;;10.77;8.60;;;;;;;-141.48;100.00;69781.59;5205581;28;20096;-68
2022/10/07 06:47:35;;;;;;;10.38;7.75;;;;;;;-141.48;100.00;69781.59;5204511;28;20048;-69
2022/10/07 06:50:06;;;;;;;12.63;6.32;;;;;;;-141.48;100.00;69781.59;5204598;28;20493;-68
2022/10/07 06:52:36;;;;;;;19.85;8.40;;;;;;;-141.48;100.00;69781.59;5202289;28;20029;-68
2022/10/07 06:55:07;;;;;;;16.55;7.10;;;;;;;-141.48;100.00;69781.59;5203897;28;20060;-66
2022/10/07 06:57:38;;;;;;;17.75;7.93;;;;;;;-141.48;100.00;69781.59;5206344;28;20030;-68
2022/10/07 07:00:09;;;;;;;9.13;6.45;;;;;;;-141.48;100.00;69781.59;5203240;28;20036;-70
2022/10/07 07:02:39;;;;;;;11.32;6.38;;;;;;;-141.48;100.00;69781.59;5204346;28;20551;-69
2022/10/07 07:05:12;;;;;;;9.90;7.72;;;;;;;-141.48;100.00;69781.59;5223747;28;20021;-70
2022/10/07 07:07:43;;;;;;;9.52;7.43;;;;;;;-141.48;100.00;69781.59;5225062;28;20469;-70
2022/10/07 07:10:13;;;;;;;9.18;6.18;;;;;;;-141.48;100.00;69781.59;5224795;28;20124;-70
2022/10/07 07:12:44;;;;;;;15.48;7.32;;;;;;;-141.48;100.00;69781.59;5225087;28;20455;-69
2022/10/07 07:15:15;;;;;;;7.72;6.07;;;;;;;-141.48;100.00;69781.59;5224341;28;20032;-68
2022/10/07 07:17:45;;;;;;;6.50;5.30;;;;;;;-141.48;100.00;69781.59;5224709;28;20033;-72
2022/10/07 07:20:16;;;;;;;12.88;6.55;;;;;;;-141.48;100.00;69781.59;5224708;28;20025;-70
2022/10/07 07:22:48;;;;;;;12.77;6.68;;;;;;;-141.48;100.00;69781.59;5224676;28;20037;-70
2022/10/07 07:25:19;;;;;;;11.23;5.40;;;;;;;-141.48;100.00;69781.59;5224404;28;20032;-71
2022/10/07 07:27:49;;;;;;;7.70;6.03;;;;;;;-141.48;100.00;69781.59;5225241;28;20033;-71
2022/10/07 07:30:22;;;;;;;16.50;6.32;;;;;;;-141.48;100.00;69781.59;5224462;28;20021;-68
2022/10/07 07:32:54;;;;;;;9.90;5.18;;;;;;;-141.48;100.00;69781.59;5223122;28;20507;-69
2022/10/07 07:35:27;;;;;;;4.97;4.65;;;;;;;-141.48;100.00;69781.59;5224671;28;20036;-70
2022/10/07 07:37:59;;;;;;;12.38;5.32;;;;;;;-141.48;100.00;69781.59;5224720;28;20025;-68
2022/10/07 07:40:29;;;;;;;19.60;7.35;;;;;;;-141.48;100.00;69781.59;5225872;28;20028;-69
2022/10/07 07:42:59;;;;;;;5.03;4.63;;;;;;;-141.48;100.00;69781.59;5225374;28;20029;-69
2022/10/07 07:45:31;;;;;;;8.23;4.22;;;;;;;-141.48;100.00;69781.59;5224463;28;20448;-70
2022/10/07 07:48:03;;;;;;;10.25;5.53;;;;;;;-141.48;100.00;69781.59;5224181;28;20029;-69
2022/10/07 07:50:34;;;;;;;7.35;6.50;;;;;;;-141.48;100.00;69781.59;5224833;28;20033;-70
2022/10/07 07:53:04;;;;;;;15.48;6.75;;;;;;;-141.48;100.00;69781.59;5224986;28;20228;-69
2022/10/07 07:55:35;;;;;;;5.50;3.83;;;;;;;-141.48;100.00;69781.59;5223815;28;20033;-68
2022/10/07 07:58:06;;;;;;;8.85;5.00;;;;;;;-141.48;100.00;69781.59;5224162;28;20119;-69
2022/10/07 08:00:37;;;;;;;5.32;4.82;;;;;;;-141.48;100.00;69781.59;5224318;28;20481;-69
2022/10/07 08:03:07;;;;;;;9.27;5.90;;;;;;;-141.48;100.00;69781.59;5224291;28;20116;-70
2022/10/07 08:05:38;;;;;;;4.55;4.18;;;;;;;-141.48;100.00;69781.59;5229079;28;20032;-72
2022/10/07 08:08:11;;;;;;;13.13;6.68;;;;;;;-141.48;100.00;69781.59;5227872;28;20063;-69
2022/10/07 08:10:42;;;;;;;7.35;5.55;;;;;;;-141.48;100.00;69781.59;5227709;28;20532;-70
2022/10/07 08:13:12;;;;;;;6.22;5.07;;;;;;;-141.48;100.00;69781.59;5227874;28;20115;-70
2022/10/07 08:15:43;;;;;;;17.75;6.85;;;;;;;-141.48;100.00;69781.59;5227480;28;20021;-70
2022/10/07 08:18:13;;;;;;;10.23;5.22;;;;;;;-141.48;100.00;69781.59;5226930;28;20029;-71
2022/10/07 08:20:55;;;;;;;10.82;5.40;;;;;;;-141.48;100.00;69781.59;5227293;28;20033;-70
2022/10/07 08:23:28;;;;;;;5.97;4.65;;;;;;;-141.48;100.00;69781.59;5228052;28;20029;-70
2022/10/07 08:25:59;;;;;;;10.45;6.00;;;;;;;-141.48;100.00;69781.59;5228805;28;20037;-71
2022/10/07 08:28:30;;;;;;;5.13;4.72;;;;;;;-141.48;100.00;69781.59;5227943;28;20362;-70
2022/10/07 08:31:04;;;;;;;13.48;6.65;;;;;;;-141.48;100.00;69781.59;5227310;28;20036;-70
2022/10/07 08:33:41;;;;;;;8.13;5.10;;;;;;;-141.48;100.00;69781.59;5227625;28;20162;-71
2022/10/07 08:36:18;;;;;;;4.55;4.15;;;;;;;-141.48;100.00;69781.59;5227708;28;20554;-70
2022/10/07 08:38:49;;;;;;;10.73;5.55;;;;;;;-141.48;100.00;69781.59;5227130;28;20029;-70
2022/10/07 08:41:41;;;;;;;11.50;5.80;;;;;;;-141.48;100.00;69781.59;5226345;28;20031;-69
2022/10/07 08:44:30;;;;;;;15.32;5.93;;;;;;;-141.48;100.00;69781.59;5226891;28;20354;-69
2022/10/07 08:47:05;;;;;;;9.32;5.30;;;;;;;-141.48;100.00;69781.59;5226576;28;20484;-70
2022/10/07 08:49:54;;;;;;;9.00;3.88;;;;;;;-141.48;100.00;69781.59;5227140;28;20033;-69
2022/10/07 08:52:51;;;;;;;3.40;3.15;;;;;;;-141.48;100.00;69781.59;5227312;28;20025;-69
2022/10/07 08:55:49;;;;;;;7.03;5.57;;;;;;;-141.48;100.00;69781.59;5219052;28;20563;-69
2022/10/07 08:58:29;;;;;;;18.52;5.45;;;;;;;-141.48;100.00;69781.59;5227621;28;20408;-68
2022/10/07 09:01:18;;;;;;;9.35;4.35;;;;;;;-141.48;100.00;69781.59;5226862;28;20028;-68
2022/10/07 09:04:09;;;;;;;13.87;5.47;;;;;;;-141.48;100.00;69781.59;5226981;28;20033;-69
2022/10/07 09:06:51;;;;;;;8.02;3.33;;;;;;;-141.48;100.00;69781.59;5226476;28;20040;-68
2022/10/07 09:09:27;;;;;;;4.57;4.18;;;;;;;-141.48;100.00;69781.59;5225881;28;20037;-67
2022/10/07 09:12:00;;;;;;;8.63;4.68;;;;;;;-141.48;100.00;69781.59;5227571;28;20031;-68
2022/10/07 09:14:38;;;;;;;20.85;4.95;;;;;;;-141.48;100.00;69781.59;5226135;28;20028;-68
2022/10/07 09:17:28;;;;;;;4.65;4.10;;;;;;;-141.48;100.00;69781.59;5226830;28;20025;-69
2022/10/07 09:20:04;;;;;;;7.38;3.95;;;;;;;-141.48;100.00;69781.59;5228130;28;20027;-68
2022/10/07 09:22:38;;;;;;;12.65;4.70;;;;;;;-141.48;100.00;69781.59;5225754;28;20033;-68
2022/10/07 09:27:41;;;;;;;15.88;5.50;;;;;;;-141.48;100.00;69781.59;5184093;28;20046;-67
2022/10/07 09:30:13;;;;;;;9.65;3.90;;;;;;;-141.48;100.00;69781.59;5185574;28;20512;-67
2022/10/07 09:32:46;;;;;;;6.10;3.88;;;;;;;-141.48;100.00;69781.59;5165832;28;20519;-66
2022/10/07 09:35:20;;;;;;;11.10;5.78;;;;;;;-141.48;100.00;69781.59;5183223;28;20546;-66
2022/10/07 09:38:08;;;;;;;22.80;5.57;;;;;;;-141.48;100.00;69781.59;5183441;28;20030;-67
2022/10/07 09:43:51;;;;;;;9.85;4.68;;;;;;;-141.48;100.00;69781.59;5184959;28;20143;-69
2022/10/07 09:47:12;;;;;;;7.40;4.97;;;;;;;-141.48;100.00;69781.59;5182899;28;20113;-68
2022/10/07 09:49:50;;;;;;;4.22;3.75;;;;;;;-141.48;100.00;69781.59;5139873;28;20048;-66
2022/10/07 09:52:31;;;;;;;3.92;3.53;;;;;;;-141.48;100.00;69781.59;5183224;28;20565;-66
2022/10/07 09:55:30;;;;;;;3.75;3.42;;;;;;;-141.48;100.00;69781.59;5182997;28;20026;-68
2022/10/07 09:58:04;;;;;;;3.80;3.58;;;;;;;-141.48;100.00;69781.59;5183256;28;20028;-67
2022/10/07 10:00:42;;;;;;;4.13;3.47;;;;;;;-141.48;100.00;69781.59;5182889;28;20158;-66
2022/10/07 10:03:13;;;;;;;8.57;3.53;;;;;;;-141.48;100.00;69781.59;5182695;28;20088;-67
2022/10/07 10:05:50;;;;;;;7.85;3.95;;;;;;;-141.48;100.00;69781.59;5183937;28;20038;-67
2022/10/07 10:08:42;;;;;;;5.90;3.60;;;;;;;-141.48;100.00;69781.59;5181702;28;20539;-66
2022/10/07 10:11:19;;;;;;;7.40;4.15;;;;;;;-141.48;100.00;69781.59;5182803;28;20410;-67
2022/10/07 10:13:50;;;;;;;17.55;4.68;;;;;;;-141.48;100.00;69781.59;5182267;28;20204;-66
2022/10/07 10:16:24;;;;;;;13.73;5.60;;;;;;;-141.48;100.00;69781.59;5184467;28;20036;-67
2022/10/07 10:18:57;;;;;;;7.60;4.15;;;;;;;-141.48;100.00;69781.59;5182739;28;20022;-67
2022/10/07 10:21:39;;;;;;;7.70;4.18;;;;;;;-141.48;100.00;69781.59;5183094;28;20532;-67
2022/10/07 10:24:14;;;;;;;5.47;4.50;;;;;;;-141.48;100.00;69781.59;5182290;28;20030;-68
2022/10/07 10:27:21;;;;;;;10.13;5.32;;;;;;;-141.48;100.00;69781.59;5181555;28;20058;-68
2022/10/07 10:30:06;;;;;;;12.43;3.88;;;;;;;-141.48;100.00;69781.59;5169188;28;20055;-67
2022/10/07 10:32:52;;;;;;;5.05;2.80;;;;;;;-141.48;100.00;69781.59;5182614;28;20030;-69
2022/10/07 10:35:33;;;;;;;3.13;2.83;;;;;;;-141.48;100.00;69781.59;5181994;28;20036;-67
2022/10/07 10:38:12;;;;;;;7.72;4.53;;;;;;;-141.48;100.00;69781.59;5182317;28;20022;-67
2022/10/07 10:41:02;;;;;;;9.43;3.77;;;;;;;-141.48;100.00;69781.59;5182311;28;20458;-67
2022/10/07 10:44:05;;;;;;;4.88;3.53;;;;;;;-141.48;100.00;69781.59;5182120;28;20022;-67
2022/10/07 10:47:11;;;;;;;15.20;5.38;;;;;;;-141.48;100.00;69781.59;5139303;28;20331;-68
2022/10/07 10:50:05;;;;;;;2.60;2.40;;;;;;;-141.48;100.00;69781.59;5174238;28;20100;-68
2022/10/07 10:53:02;;;;;;;5.47;2.78;;;;;;;-141.48;100.00;69781.59;5171603;28;20069;-68
2022/10/07 10:55:48;;;;;;;9.75;4.47;;;;;;;-141.48;100.00;69781.59;5182503;28;20320;-66
2022/10/07 10:58:43;;;;;;;10.77;2.67;;;;;;;-141.48;100.00;69781.59;5182132;28;20068;-68
2022/10/07 11:01:39;;;;;;;7.95;2.55;;;;;;;-141.48;100.00;69781.59;5181957;28;20064;-67
2022/10/07 11:04:16;;;;;;;9.50;4.53;;;;;;;-141.48;100.00;69781.59;5179099;28;20441;-68
2022/10/07 11:06:58;;;;;;;6.20;3.05;;;;;;;-141.48;100.00;69781.59;5182365;28;20087;-68
2022/10/07 11:09:51;;;;;;;11.98;3.60;;;;;;;-141.48;100.00;69781.59;5182142;28;20025;-68
2022/10/07 11:12:30;;;;;;;8.73;3.05;;;;;;;-141.48;100.00;69781.59;5181904;28;20029;-68
2022/10/07 11:15:15;;;;;;;4.35;3.88;;;;;;;-141.48;100.00;69781.59;5181247;28;20478;-67
2022/10/07 11:17:48;;;;;;;15.07;4.60;;;;;;;-141.48;100.00;69781.59;5181819;28;20057;-70
2022/10/07 11:20:35;;;;;;;3.72;2.83;;;;;;;-141.48;100.00;69781.59;5181936;28;20486;-67
2022/10/07 11:23:35;;;;;;;7.00;3.10;;;;;;;-141.48;100.00;69781.59;5182140;28;20528;-68
2022/10/07 11:26:29;;;;;;;7.07;3.25;;;;;;;-141.48;100.00;69781.59;5181825;28;20393;-68
2022/10/07 11:29:10;;;;;;;6.28;4.03;;;;;;;-141.48;100.00;69781.59;5181233;28;20018;-67
2022/10/07 11:31:46;;;;;;;9.27;3.42;;;;;;;-141.48;100.00;69781.59;5181871;28;20036;-68
2022/10/07 11:41:41;;;;;;;10.23;2.35;;;;;;;-141.48;100.00;69781.59;5287359;22;20075;-84
2022/10/07 11:44:27;;;;;;;7.63;4.22;;;;;;;-141.48;100.00;69781.59;5224122;28;20093;-83
2022/10/07 11:47:01;;;;;;;10.98;5.28;;;;;;;-141.48;100.00;69781.59;5217848;28;20029;-82
2022/10/07 11:49:42;;;;;;;8.20;4.35;;;;;;;-141.48;100.00;69781.59;5215917;28;20495;-79
2022/10/07 11:52:25;;;;;;;3.90;3.08;;;;;;;-141.48;100.00;69781.59;5216457;28;20053;-83
2022/10/07 11:55:07;;;;;;;7.28;2.55;;;;;;;-141.48;100.00;69781.59;5216692;28;20048;-84
2022/10/07 11:57:42;;;;;;;8.02;4.07;;;;;;;-141.48;100.00;69781.59;5217344;28;20029;-84
2022/10/07 12:00:24;;;;;;;6.43;3.70;;;;;;;-141.48;100.00;69781.59;5215848;28;20021;-83
2022/10/07 12:02:56;;;;;;;7.70;2.85;;;;;;;-141.48;100.00;69781.59;5216481;28;20426;-84
2022/10/07 12:05:32;;;;;;;6.47;3.33;;;;;;;-141.48;100.00;69781.59;5215515;28;20029;-83
2022/10/07 12:08:08;;;;;;;4.07;3.72;;;;;;;-141.48;100.00;69781.59;5216641;28;20029;-84